Time;durP1;ratioP1;P1;durP2;ratioP2;P2;SDS_P1;SDS_P2;PMS_P1;PMS_P2;Temp;Humidity;BMP_temperature;BMP_pressure;BME280_temperature;BME280_humidity;BME280_pressure;Samples;Min_cycle;Max_cycle;Signal;HPM_P1;HPM_P2
2021/08/02 00:01:32;;;;;;;1.83;1.15;;;;;;;;;;8159572;28;20385;-75
2021/08/02 00:05:40;;;;;;;2.85;1.08;;;;;;;;;;8154037;28;20481;-75
2021/08/02 00:09:45;;;;;;;1.55;1.20;;;;;;;;;;8161018;28;20065;-75
2021/08/02 00:13:51;;;;;;;3.72;1.50;;;;;;;;;;8165620;28;20449;-76
2021/08/02 00:17:56;;;;;;;1.40;1.20;;;;;;;;;;8167554;28;20401;-76
2021/08/02 00:22:02;;;;;;;1.48;1.20;;;;;;;;;;8166760;28;20395;-77
2021/08/02 00:26:07;;;;;;;2.95;1.45;;;;;;;;;;8167036;28;20046;-76
2021/08/02 00:30:12;;;;;;;4.20;1.30;;;;;;;;;;8150290;28;20335;-76
2021/08/02 00:34:16;;;;;;;0.90;0.90;;;;;;;;;;8165547;28;20370;-76
2021/08/02 00:38:22;;;;;;;4.32;1.02;;;;;;;;;;8181791;28;20398;-75
2021/08/02 00:42:39;;;;;;;3.25;1.27;;;;;;;;;;8168044;28;20477;-76
2021/08/02 00:46:49;;;;;;;2.97;1.80;;;;;;;;;;8165419;28;20357;-75
2021/08/02 00:51:00;;;;;;;1.58;1.30;;;;;;;;;;8164955;28;20362;-76
2021/08/02 00:55:07;;;;;;;1.80;1.40;;;;;;;;;;8163647;28;20046;-75
2021/08/02 00:59:13;;;;;;;1.60;1.50;;;;;;;;;;8166894;28;20477;-76
2021/08/02 01:03:19;;;;;;;2.67;1.60;;;;;;;;;;8166196;28;20124;-76
2021/08/02 01:07:30;;;;;;;6.13;2.30;;;;;;;;;;8180838;28;20393;-76
2021/08/02 01:11:37;;;;;;;2.38;1.52;;;;;;;;;;8165978;28;20050;-77
2021/08/02 01:15:54;;;;;;;2.78;2.05;;;;;;;;;;8150227;28;20479;-75
2021/08/02 01:20:05;;;;;;;2.50;2.10;;;;;;;;;;8164369;28;20369;-76
2021/08/02 01:24:13;;;;;;;3.80;1.60;;;;;;;;;;8165152;28;20042;-76
2021/08/02 01:28:20;;;;;;;2.05;1.42;;;;;;;;;;8166470;28;20481;-76
2021/08/02 01:32:27;;;;;;;4.90;1.60;;;;;;;;;;8168357;28;20378;-76
2021/08/02 01:36:39;;;;;;;2.30;1.95;;;;;;;;;;8165712;28;20480;-75
2021/08/02 01:40:46;;;;;;;6.72;1.90;;;;;;;;;;8163983;28;20368;-76
2021/08/02 01:44:52;;;;;;;4.80;2.00;;;;;;;;;;8164112;28;20050;-75
2021/08/02 01:49:36;;;;;;;4.65;2.42;;;;;;;;;;8163558;28;20361;-76
2021/08/02 01:54:05;;;;;;;4.03;2.55;;;;;;;;;;8148274;28;20086;-76
2021/08/02 01:58:14;;;;;;;2.47;2.22;;;;;;;;;;8148288;28;20038;-76
2021/08/02 02:02:35;;;;;;;2.55;2.17;;;;;;;;;;8162265;28;20490;-76
2021/08/02 02:06:46;;;;;;;4.65;2.60;;;;;;;;;;8163529;28;20068;-76
2021/08/02 02:11:02;;;;;;;4.00;2.75;;;;;;;;;;8177712;28;20512;-76
2021/08/02 02:15:23;;;;;;;6.03;2.58;;;;;;;;;;8148543;28;20385;-75
2021/08/02 02:19:30;;;;;;;4.60;2.70;;;;;;;;;;8161063;28;20050;-75
2021/08/02 02:23:42;;;;;;;3.55;2.58;;;;;;;;;;8161876;28;20332;-75
2021/08/02 02:27:49;;;;;;;;;;;;;;;;;;8162420;28;20515;-76
2021/08/02 02:31:57;;;;;;;9.30;3.30;;;;;;;;;;8178101;28;20250;-76
2021/08/02 02:36:05;;;;;;;3.80;3.33;;;;;;;;;;8160731;28;20335;-75
2021/08/02 02:40:12;;;;;;;6.65;3.47;;;;;;;;;;8160479;28;20337;-75
2021/08/02 02:44:21;;;;;;;;;;;;;;;;;;8145955;28;20042;-75
2021/08/02 02:48:26;;;;;;;5.78;4.03;;;;;;;;;;8162313;28;20275;-74
2021/08/02 02:52:34;;;;;;;8.57;6.30;;;;;;;;;;8178285;28;20060;-75
2021/08/02 02:56:39;;;;;;;6.45;4.32;;;;;;;;;;8160237;28;20393;-75
2021/08/02 03:00:48;;;;;;;9.10;4.40;;;;;;;;;;8160985;28;20361;-75
2021/08/02 03:04:59;;;;;;;6.03;4.50;;;;;;;;;;8160515;28;20059;-75
2021/08/02 03:09:05;;;;;;;12.33;5.27;;;;;;;;;;8160191;28;20073;-75
2021/08/02 03:13:10;;;;;;;7.68;5.47;;;;;;;;;;8176996;28;20477;-75
2021/08/02 03:17:15;;;;;;;6.40;4.88;;;;;;;;;;8160916;28;20473;-76
2021/08/02 03:21:21;;;;;;;9.00;5.55;;;;;;;;;;8160273;28;20042;-76
2021/08/02 03:25:32;;;;;;;10.75;6.18;;;;;;;;;;8161644;28;20454;-75
2021/08/02 03:30:04;;;;;;;9.25;6.00;;;;;;;;;;8159957;28;20493;-74
2021/08/02 03:34:18;;;;;;;11.98;6.03;;;;;;;;;;8160334;28;20376;-75
2021/08/02 03:38:26;;;;;;;7.05;5.53;;;;;;;;;;8161086;28;20492;-75
2021/08/02 03:42:36;;;;;;;7.40;5.60;;;;;;;;;;8159533;28;20461;-75
2021/08/02 03:46:43;;;;;;;6.60;4.70;;;;;;;;;;8173197;28;20490;-75
2021/08/02 03:50:48;;;;;;;6.97;5.00;;;;;;;;;;8174220;28;20450;-75
2021/08/02 03:54:54;;;;;;;8.93;4.95;;;;;;;;;;8142307;28;20042;-75
2021/08/02 03:59:00;;;;;;;7.20;4.47;;;;;;;;;;8159764;28;20055;-76
2021/08/02 04:03:05;;;;;;;12.63;5.97;;;;;;;;;;8160084;28;20463;-75
2021/08/02 04:07:11;;;;;;;8.88;6.30;;;;;;;;;;8161670;28;20469;-74
2021/08/02 04:11:16;;;;;;;12.63;6.82;;;;;;;;;;8159743;28;20453;-75
2021/08/02 04:15:21;;;;;;;11.45;7.45;;;;;;;;;;8160012;28;20478;-74
2021/08/02 04:19:27;;;;;;;12.40;7.10;;;;;;;;;;8158531;28;20461;-75
2021/08/02 04:23:32;;;;;;;12.93;7.78;;;;;;;;;;8159656;28;20374;-75
2021/08/02 04:27:37;;;;;;;10.98;8.40;;;;;;;;;;8158271;28;20393;-74
2021/08/02 04:31:43;;;;;;;11.00;8.10;;;;;;;;;;8158316;28;20076;-75
2021/08/02 04:35:49;;;;;;;18.35;9.65;;;;;;;;;;8159820;28;20476;-75
2021/08/02 04:39:55;;;;;;;16.63;10.00;;;;;;;;;;8160118;28;20374;-75
2021/08/02 04:44:02;;;;;;;19.70;9.48;;;;;;;;;;8091547;28;20127;-74
2021/08/02 04:48:06;;;;;;;18.25;10.27;;;;;;;;;;8167276;28;20461;-75
2021/08/02 04:52:09;;;;;;;15.88;9.55;;;;;;;;;;8159589;28;20368;-75
2021/08/02 04:56:15;;;;;;;17.88;11.52;;;;;;;;;;8173248;28;20051;-76
2021/08/02 05:00:20;;;;;;;14.73;10.00;;;;;;;;;;8163577;28;20355;-75
2021/08/02 05:04:25;;;;;;;18.30;11.18;;;;;;;;;;8180166;28;20492;-74
2021/08/02 05:08:31;;;;;;;19.90;11.77;;;;;;;;;;8163639;28;20438;-76
2021/08/02 05:12:36;;;;;;;15.27;10.05;;;;;;;;;;8179417;28;20346;-74
2021/08/02 05:16:41;;;;;;;18.65;9.63;;;;;;;;;;8162989;28;20069;-74
2021/08/02 05:20:46;;;;;;;11.43;8.38;;;;;;;;;;8164920;28;20456;-75
2021/08/02 05:24:51;;;;;;;11.30;7.45;;;;;;;;;;8179151;28;20485;-74
2021/08/02 05:28:57;;;;;;;8.73;6.03;;;;;;;;;;8164328;28;20466;-75
2021/08/02 05:33:02;;;;;;;10.85;7.28;;;;;;;;;;8165006;28;20479;-75
2021/08/02 05:37:08;;;;;;;9.88;6.20;;;;;;;;;;8165129;28;20470;-74
2021/08/02 05:41:13;;;;;;;8.80;6.30;;;;;;;;;;8164198;28;20474;-73
2021/08/02 05:45:19;;;;;;;8.27;6.25;;;;;;;;;;8165828;28;20522;-73
2021/08/02 05:49:24;;;;;;;13.05;6.53;;;;;;;;;;8179845;28;20078;-74
2021/08/02 05:53:29;;;;;;;8.13;5.65;;;;;;;;;;8178488;28;20501;-73
2021/08/02 05:57:35;;;;;;;6.25;4.75;;;;;;;;;;8164434;28;20493;-74
2021/08/02 06:01:40;;;;;;;9.50;4.85;;;;;;;;;;8163764;28;20496;-73
2021/08/02 06:05:45;;;;;;;7.32;4.47;;;;;;;;;;8146445;28;20054;-74
2021/08/02 06:09:51;;;;;;;5.47;3.55;;;;;;;;;;8164890;28;20369;-74
2021/08/02 06:13:56;;;;;;;6.40;4.15;;;;;;;;;;8164406;28;20046;-74
2021/08/02 06:18:01;;;;;;;6.78;3.70;;;;;;;;;;8162960;28;20377;-75
2021/08/02 06:22:06;;;;;;;5.85;3.65;;;;;;;;;;8161532;28;20504;-76
2021/08/02 06:26:11;;;;;;;7.13;3.08;;;;;;;;;;8162785;28;20369;-75
2021/08/02 06:30:18;;;;;;;4.00;2.58;;;;;;;;;;8162990;28;20442;-77
2021/08/02 06:34:22;;;;;;;5.82;2.80;;;;;;;;;;8161684;28;20331;-75
2021/08/02 06:38:32;;;;;;;4.15;3.25;;;;;;;;;;8162073;28;20365;-75
2021/08/02 06:42:37;;;;;;;5.55;3.38;;;;;;;;;;8160507;28;20504;-74
2021/08/02 06:46:44;;;;;;;7.10;3.27;;;;;;;;;;8162770;28;20450;-74
2021/08/02 06:50:50;;;;;;;8.05;3.75;;;;;;;;;;8161903;28;20465;-73
2021/08/02 06:54:55;;;;;;;7.32;3.83;;;;;;;;;;8161423;28;20402;-74
2021/08/02 06:59:00;;;;;;;6.10;3.10;;;;;;;;;;8163479;28;20469;-74
2021/08/02 07:03:05;;;;;;;7.53;4.25;;;;;;;;;;8158541;28;20359;-74
2021/08/02 07:07:11;;;;;;;7.63;4.00;;;;;;;;;;8162463;28;20470;-75
2021/08/02 07:11:16;;;;;;;6.25;4.20;;;;;;;;;;8162863;28;20450;-74
2021/08/02 07:15:21;;;;;;;5.90;3.53;;;;;;;;;;8164740;28;20527;-74
2021/08/02 07:19:26;;;;;;;7.30;4.18;;;;;;;;;;8161843;28;20511;-73
2021/08/02 07:23:31;;;;;;;5.88;4.30;;;;;;;;;;8162457;28;20477;-74
2021/08/02 07:27:38;;;;;;;10.00;4.13;;;;;;;;;;8145169;28;20060;-75
2021/08/02 07:31:43;;;;;;;6.17;4.53;;;;;;;;;;8161366;28;20370;-75
2021/08/02 07:35:49;;;;;;;9.10;4.43;;;;;;;;;;8162002;28;20377;-73
2021/08/02 07:39:54;;;;;;;9.00;4.40;;;;;;;;;;8162455;28;20373;-74
2021/08/02 07:44:00;;;;;;;6.72;3.97;;;;;;;;;;8161596;28;20136;-74
2021/08/02 07:48:06;;;;;;;6.93;3.58;;;;;;;;;;8162957;28;20462;-74
2021/08/02 07:52:11;;;;;;;5.55;3.70;;;;;;;;;;8144817;28;20043;-74
2021/08/02 07:56:16;;;;;;;7.15;3.60;;;;;;;;;;8162755;28;20058;-74
2021/08/02 08:00:22;;;;;;;8.88;4.00;;;;;;;;;;8159795;28;20450;-74
2021/08/02 08:04:27;;;;;;;5.65;3.85;;;;;;;;;;8159465;28;20374;-74
2021/08/02 08:08:32;;;;;;;8.60;3.85;;;;;;;;;;8158070;28;20461;-74
2021/08/02 08:12:38;;;;;;;8.07;3.28;;;;;;;;;;8160533;28;20472;-74
2021/08/02 08:16:44;;;;;;;5.28;3.53;;;;;;;;;;8159594;28;20347;-74
2021/08/02 08:20:49;;;;;;;6.32;3.53;;;;;;;;;;8142555;28;20373;-74
2021/08/02 08:24:55;;;;;;;7.22;3.78;;;;;;;;;;8157322;28;20462;-74
2021/08/02 08:29:00;;;;;;;5.43;3.45;;;;;;;;;;8159412;28;20058;-74
2021/08/02 08:33:05;;;;;;;8.70;3.78;;;;;;;;;;8165765;28;20341;-73
2021/08/02 08:37:10;;;;;;;11.52;5.55;;;;;;;;;;8166808;28;20536;-74
2021/08/02 08:41:20;;;;;;;13.68;6.63;;;;;;;;;;8166405;28;20503;-73
2021/08/02 08:45:24;;;;;;;15.00;6.63;;;;;;;;;;8166104;28;20376;-73
2021/08/02 08:49:30;;;;;;;12.70;5.65;;;;;;;;;;8165796;28;20473;-72
2021/08/02 08:53:35;;;;;;;12.85;6.13;;;;;;;;;;8165402;28;20331;-73
2021/08/02 08:57:42;;;;;;;8.98;4.38;;;;;;;;;;8132288;28;20054;-72
2021/08/02 09:01:47;;;;;;;17.53;4.07;;;;;;;;;;8132455;28;20478;-73
2021/08/02 09:06:06;;;;;;;5.95;2.95;;;;;;;;;;8133983;28;20500;-75
2021/08/02 09:10:17;;;;;;;7.10;2.92;;;;;;;;;;8132812;28;20050;-74
2021/08/02 09:14:26;;;;;;;3.33;2.40;;;;;;;;;;8118242;28;20402;-73
2021/08/02 09:18:32;;;;;;;2.40;2.00;;;;;;;;;;8133382;28;20366;-72
2021/08/02 09:22:37;;;;;;;3.22;2.22;;;;;;;;;;8135079;28;20346;-72
2021/08/02 09:26:43;;;;;;;7.22;2.45;;;;;;;;;;8131549;28;20359;-72
2021/08/02 09:31:01;;;;;;;5.32;2.83;;;;;;;;;;8132304;28;20410;-71
2021/08/02 09:35:07;;;;;;;7.22;2.47;;;;;;;;;;8131058;28;20358;-73
2021/08/02 09:39:16;;;;;;;7.05;2.47;;;;;;;;;;8130765;28;20414;-72
2021/08/02 09:43:25;;;;;;;5.40;2.60;;;;;;;;;;8132343;28;20342;-73
2021/08/02 09:47:42;;;;;;;6.65;2.88;;;;;;;;;;8135195;28;20411;-74
2021/08/02 09:51:47;;;;;;;5.40;2.58;;;;;;;;;;8132557;28;20042;-72
2021/08/02 09:55:53;;;;;;;6.47;2.42;;;;;;;;;;8166354;28;20397;-73
2021/08/02 10:00:00;;;;;;;2.80;2.08;;;;;;;;;;8162778;28;20374;-72
2021/08/02 10:04:16;;;;;;;2.38;1.55;;;;;;;;;;8164493;28;20069;-72
2021/08/02 10:08:23;;;;;;;3.42;1.50;;;;;;;;;;8147545;28;20370;-73
2021/08/02 10:12:44;;;;;;;4.38;1.70;;;;;;;;;;8146642;28;20358;-73
2021/08/02 10:16:50;;;;;;;5.30;2.20;;;;;;;;;;8163565;28;20341;-76
2021/08/02 10:21:13;;;;;;;4.22;1.88;;;;;;;;;;8159353;28;20042;-73
2021/08/02 10:25:19;;;;;;;4.25;2.00;;;;;;;;;;8157922;28;20410;-73
2021/08/02 10:29:25;;;;;;;2.30;2.10;;;;;;;;;;8162328;28;20357;-74
2021/08/02 10:33:38;;;;;;;2.92;2.30;;;;;;;;;;8160728;28;20069;-73
2021/08/02 10:37:43;;;;;;;3.15;1.75;;;;;;;;;;8159830;28;20370;-73
2021/08/02 10:41:49;;;;;;;3.10;1.60;;;;;;;;;;8176714;28;20072;-72
2021/08/02 10:45:56;;;;;;;2.30;1.50;;;;;;;;;;8160209;28;20499;-72
2021/08/02 10:50:00;;;;;;;2.65;1.70;;;;;;;;;;8161079;28;20327;-73
2021/08/02 10:54:07;;;;;;;1.75;1.48;;;;;;;;;;8143211;28;20377;-74
2021/08/02 10:58:11;;;;;;;1.98;1.55;;;;;;;;;;8159678;28;20054;-72
2021/08/02 11:02:18;;;;;;;2.47;1.90;;;;;;;;;;8160113;28;20361;-74
2021/08/02 11:06:24;;;;;;;4.50;1.97;;;;;;;;;;8161753;28;20500;-72
2021/08/02 11:10:30;;;;;;;7.47;1.93;;;;;;;;;;8162027;28;20046;-73
2021/08/02 11:14:51;;;;;;;3.17;2.10;;;;;;;;;;8162074;28;20458;-72
2021/08/02 11:18:56;;;;;;;2.90;1.70;;;;;;;;;;8162919;28;20476;-74
2021/08/02 11:23:01;;;;;;;5.60;1.95;;;;;;;;;;8164328;28;20069;-72
2021/08/02 11:27:10;;;;;;;5.88;1.30;;;;;;;;;;8162837;28;20331;-73
2021/08/02 11:31:16;;;;;;;2.15;1.77;;;;;;;;;;8159987;28;20365;-72
2021/08/02 11:35:33;;;;;;;3.50;1.73;;;;;;;;;;8142750;28;20446;-72
2021/08/02 11:39:43;;;;;;;5.20;1.70;;;;;;;;;;8161821;28;20369;-71
2021/08/02 11:43:52;;;;;;;2.40;1.20;;;;;;;;;;8162833;28;20469;-72
2021/08/02 11:48:02;;;;;;;2.58;1.20;;;;;;;;;;8160981;28;20377;-73
2021/08/02 11:52:08;;;;;;;2.55;1.20;;;;;;;;;;8161323;28;20397;-72
2021/08/02 11:56:14;;;;;;;1.83;1.30;;;;;;;;;;8161934;28;20350;-73
2021/08/02 12:00:20;;;;;;;5.78;0.82;;;;;;;;;;8164920;28;20373;-72
2021/08/02 12:04:25;;;;;;;2.47;1.20;;;;;;;;;;8160830;28;20042;-73
2021/08/02 12:08:30;;;;;;;3.70;1.30;;;;;;;;;;8162635;28;20409;-75
2021/08/02 12:12:38;;;;;;;2.30;1.30;;;;;;;;;;8163627;28;20369;-73
2021/08/02 12:16:44;;;;;;;4.23;1.70;;;;;;;;;;8161037;28;20373;-73
2021/08/02 12:20:49;;;;;;;5.25;2.22;;;;;;;;;;8161322;28;20062;-72
2021/08/02 12:24:59;;;;;;;4.15;2.22;;;;;;;;;;8162066;28;20394;-72
2021/08/02 12:29:08;;;;;;;6.55;2.60;;;;;;;;;;8161523;28;20042;-73
2021/08/02 12:33:13;;;;;;;3.20;2.60;;;;;;;;;;8161143;28;20068;-71
2021/08/02 12:37:19;;;;;;;5.82;1.95;;;;;;;;;;8158186;28;20388;-73
2021/08/02 12:41:24;;;;;;;3.67;2.17;;;;;;;;;;8160033;28;20492;-73
2021/08/02 12:45:29;;;;;;;2.60;1.92;;;;;;;;;;8160718;28;20472;-71
2021/08/02 12:49:34;;;;;;;2.95;2.10;;;;;;;;;;8160165;28;20487;-72
2021/08/02 12:53:39;;;;;;;9.25;2.30;;;;;;;;;;8143380;28;20365;-71
2021/08/02 12:57:45;;;;;;;4.53;1.75;;;;;;;;;;8159432;28;20473;-72
2021/08/02 13:01:51;;;;;;;3.80;2.30;;;;;;;;;;8160482;28;20046;-73
2021/08/02 13:05:56;;;;;;;3.92;2.25;;;;;;;;;;8160075;28;20343;-72
2021/08/02 13:10:02;;;;;;;2.88;2.17;;;;;;;;;;8160189;28;20468;-72
2021/08/02 13:14:07;;;;;;;2.92;2.13;;;;;;;;;;8175542;28;20046;-71
2021/08/02 13:18:12;;;;;;;5.63;2.53;;;;;;;;;;8160822;28;20481;-71
2021/08/02 13:22:20;;;;;;;3.55;2.00;;;;;;;;;;8166635;28;20469;-70
2021/08/02 13:30:48;;;;;;;4.78;1.95;;;;;;;;;;8177243;28;20288;-71
2021/08/02 13:34:53;;;;;;;5.00;2.38;;;;;;;;;;8147332;28;20065;-69
2021/08/02 13:38:59;;;;;;;2.78;1.45;;;;;;;;;;8165735;28;20401;-73
2021/08/02 13:43:04;;;;;;;3.35;1.25;;;;;;;;;;8166290;28;20445;-71
2021/08/02 13:47:12;;;;;;;2.10;1.75;;;;;;;;;;8179216;28;20438;-71
2021/08/02 13:51:20;;;;;;;5.05;1.80;;;;;;;;;;8164939;28;20365;-73
2021/08/02 13:55:27;;;;;;;2.67;1.88;;;;;;;;;;8163782;28;20528;-71
2021/08/02 13:59:35;;;;;;;4.57;2.38;;;;;;;;;;8164549;28;20046;-73
2021/08/02 14:03:40;;;;;;;8.75;3.35;;;;;;;;;;8163927;28;20343;-72
2021/08/02 14:07:46;;;;;;;6.38;2.50;;;;;;;;;;8163466;28;20051;-72
2021/08/02 14:11:53;;;;;;;6.53;2.22;;;;;;;;;;8164837;28;20361;-72
2021/08/02 14:16:02;;;;;;;3.13;2.38;;;;;;;;;;8146220;28;20327;-71
2021/08/02 14:20:09;;;;;;;3.92;2.15;;;;;;;;;;8134588;28;20444;-73
2021/08/02 14:24:14;;;;;;;3.75;2.03;;;;;;;;;;8162894;28;20046;-73
2021/08/02 14:28:20;;;;;;;2.45;1.70;;;;;;;;;;8162116;28;20058;-71
2021/08/02 14:32:25;;;;;;;2.63;1.98;;;;;;;;;;8162992;28;20461;-72
2021/08/02 14:36:32;;;;;;;2.33;1.45;;;;;;;;;;8162330;28;20060;-72
2021/08/02 14:40:38;;;;;;;2.85;1.42;;;;;;;;;;8163183;28;20465;-72
2021/08/02 14:44:44;;;;;;;3.03;1.92;;;;;;;;;;8144983;28;20485;-72
2021/08/02 14:48:52;;;;;;;2.58;1.60;;;;;;;;;;8161972;28;20381;-72
2021/08/02 14:52:58;;;;;;;1.90;1.50;;;;;;;;;;8163239;28;20480;-72
2021/08/02 14:57:08;;;;;;;4.20;1.73;;;;;;;;;;8145269;28;20493;-72
2021/08/02 15:01:15;;;;;;;4.20;1.50;;;;;;;;;;8162952;28;20496;-73
2021/08/02 15:05:20;;;;;;;2.20;1.50;;;;;;;;;;8160800;28;20343;-72
2021/08/02 15:09:26;;;;;;;2.08;1.17;;;;;;;;;;8160366;28;20847;-72
2021/08/02 15:13:32;;;;;;;2.00;1.42;;;;;;;;;;8159377;28;20474;-72
2021/08/02 15:17:45;;;;;;;2.13;1.40;;;;;;;;;;8159496;28;20369;-72
2021/08/02 15:21:58;;;;;;;4.35;1.73;;;;;;;;;;8159962;28;20474;-72
2021/08/02 15:26:11;;;;;;;7.53;1.80;;;;;;;;;;8143883;28;20547;-72
2021/08/02 15:30:16;;;;;;;3.95;2.35;;;;;;;;;;8162189;28;20481;-72
2021/08/02 15:34:21;;;;;;;3.60;2.20;;;;;;;;;;8158841;28;20385;-72
2021/08/02 15:38:26;;;;;;;8.85;4.03;;;;;;;;;;8158578;28;20503;-72
2021/08/02 15:42:36;;;;;;;6.07;2.85;;;;;;;;;;8160029;28;20046;-73
2021/08/02 15:46:42;;;;;;;3.65;2.22;;;;;;;;;;8158283;28;20480;-74
2021/08/02 15:50:50;;;;;;;5.38;2.92;;;;;;;;;;8173333;28;20454;-73
2021/08/02 15:54:56;;;;;;;7.70;3.20;;;;;;;;;;8174764;28;20373;-74
2021/08/02 15:59:12;;;;;;;6.57;2.72;;;;;;;;;;8174614;28;20381;-75
2021/08/02 16:03:59;;;;;;;5.47;2.80;;;;;;;;;;8191469;28;20388;-74
2021/08/02 16:08:07;;;;;;;8.48;2.60;;;;;;;;;;8173293;28;20469;-75
2021/08/02 16:12:35;;;;;;;7.15;2.28;;;;;;;;;;8191745;28;20360;-75
2021/08/02 16:16:40;;;;;;;;;;;;;;;;;;8192936;28;20351;-74
2021/08/02 16:20:46;;;;;;;10.90;2.97;;;;;;;;;;8120507;28;20378;-75
2021/08/02 16:24:51;;;;;;;4.75;2.70;;;;;;;;;;8145335;28;20071;-75
2021/08/02 16:28:56;;;;;;;9.68;3.17;;;;;;;;;;8173492;28;20507;-74
2021/08/02 16:33:01;;;;;;;11.23;3.22;;;;;;;;;;8139772;28;20057;-74
2021/08/02 16:37:07;;;;;;;9.68;3.97;;;;;;;;;;8190464;28;20322;-74
2021/08/02 16:41:12;;;;;;;10.02;2.90;;;;;;;;;;8193476;28;20389;-74
2021/08/02 16:45:17;;;;;;;9.93;5.45;;;;;;;;;;8190943;28;20353;-74
2021/08/02 16:49:22;;;;;;;9.30;3.42;;;;;;;;;;8189877;28;20358;-74
2021/08/02 16:53:27;;;;;;;9.95;4.28;;;;;;;;;;8192385;28;20042;-75
2021/08/02 16:57:33;;;;;;;9.20;5.05;;;;;;;;;;8179165;28;20351;-74
2021/08/02 17:01:40;;;;;;;10.32;4.20;;;;;;;;;;8199635;28;20481;-74
2021/08/02 17:05:46;;;;;;;7.47;4.00;;;;;;;;;;8197761;28;20457;-74
2021/08/02 17:09:51;;;;;;;6.47;3.50;;;;;;;;;;8197941;28;20491;-74
2021/08/02 17:13:56;;;;;;;6.55;3.00;;;;;;;;;;8195933;28;20484;-73
2021/08/02 17:18:02;;;;;;;8.77;3.50;;;;;;;;;;8199208;28;20416;-73
2021/08/02 17:22:07;;;;;;;5.70;2.60;;;;;;;;;;8195502;28;20337;-73
2021/08/02 17:26:13;;;;;;;3.92;2.60;;;;;;;;;;8196036;28;20072;-74
2021/08/02 17:30:17;;;;;;;3.38;2.50;;;;;;;;;;8197151;28;20511;-73
2021/08/02 17:34:23;;;;;;;5.30;2.30;;;;;;;;;;8197712;28;20473;-73
2021/08/02 17:38:28;;;;;;;3.30;2.13;;;;;;;;;;8196683;28;20365;-74
2021/08/02 17:42:33;;;;;;;4.00;2.90;;;;;;;;;;8194611;28;20072;-73
2021/08/02 17:46:39;;;;;;;10.38;2.70;;;;;;;;;;8194998;28;20076;-73
2021/08/02 17:50:45;;;;;;;5.32;3.60;;;;;;;;;;8195417;28;20442;-74
2021/08/02 17:54:50;;;;;;;6.30;4.13;;;;;;;;;;8194027;28;20365;-73
2021/08/02 17:58:56;;;;;;;6.60;4.47;;;;;;;;;;8195497;28;20338;-73
2021/08/02 18:03:01;;;;;;;4.47;2.92;;;;;;;;;;8195384;28;20483;-73
2021/08/02 18:07:07;;;;;;;5.63;2.58;;;;;;;;;;8194156;28;20381;-73
2021/08/02 18:11:19;;;;;;;6.00;2.75;;;;;;;;;;8192184;28;20069;-72
2021/08/02 18:15:24;;;;;;;5.00;2.70;;;;;;;;;;8195304;28;20484;-73
2021/08/02 18:19:29;;;;;;;5.05;3.22;;;;;;;;;;8195119;28;20432;-73
2021/08/02 18:23:34;;;;;;;3.60;2.35;;;;;;;;;;8193464;28;20496;-73
2021/08/02 18:27:40;;;;;;;5.45;2.63;;;;;;;;;;8194411;28;20038;-73
2021/08/02 18:31:45;;;;;;;7.25;2.90;;;;;;;;;;8154784;28;20358;-73
2021/08/02 18:35:50;;;;;;;9.85;3.08;;;;;;;;;;8193581;28;20469;-73
2021/08/02 18:39:56;;;;;;;8.00;2.90;;;;;;;;;;8196292;28;20046;-74
2021/08/02 18:44:03;;;;;;;6.78;3.38;;;;;;;;;;8195042;28;20049;-74
2021/08/02 18:48:07;;;;;;;8.32;3.03;;;;;;;;;;8192132;28;20487;-73
2021/08/02 18:52:14;;;;;;;3.35;2.50;;;;;;;;;;8192139;28;20477;-73
2021/08/02 18:56:19;;;;;;;3.85;2.80;;;;;;;;;;8194458;28;20369;-73
2021/08/02 19:00:26;;;;;;;5.10;2.92;;;;;;;;;;8191657;28;20354;-73
2021/08/02 19:04:32;;;;;;;4.93;3.50;;;;;;;;;;8192575;28;20473;-73
2021/08/02 19:08:38;;;;;;;11.07;3.85;;;;;;;;;;8208891;28;20049;-73
2021/08/02 19:13:07;;;;;;;9.75;3.30;;;;;;;;;;8195521;28;20446;-73
2021/08/02 19:17:18;;;;;;;5.88;3.33;;;;;;;;;;8174664;28;20343;-74
2021/08/02 19:21:32;;;;;;;11.02;7.15;;;;;;;;;;8110313;28;20473;-74
2021/08/02 19:25:38;;;;;;;7.78;3.38;;;;;;;;;;8093596;28;20058;-73
2021/08/02 19:29:45;;;;;;;5.13;3.25;;;;;;;;;;8109096;28;20482;-73
2021/08/02 19:33:52;;;;;;;7.80;3.10;;;;;;;;;;8044544;28;20516;-73
2021/08/02 19:37:58;;;;;;;8.35;3.70;;;;;;;;;;8109507;28;20499;-73
2021/08/02 19:42:11;;;;;;;4.72;3.20;;;;;;;;;;8042612;28;20355;-75
2021/08/02 19:46:19;;;;;;;21.83;10.90;;;;;;;;;;8125096;28;20070;-73
2021/08/02 19:50:28;;;;;;;5.57;3.58;;;;;;;;;;8146456;28;20476;-74
2021/08/02 19:54:34;;;;;;;6.72;3.20;;;;;;;;;;8190581;28;20354;-73
2021/08/02 19:58:45;;;;;;;3.72;2.65;;;;;;;;;;8190943;28;20053;-73
2021/08/02 20:02:52;;;;;;;4.78;2.45;;;;;;;;;;8190568;28;20465;-73
2021/08/02 20:06:57;;;;;;;6.30;2.40;;;;;;;;;;8191218;28;20346;-74
2021/08/02 20:11:02;;;;;;;5.03;2.60;;;;;;;;;;8192157;28;20456;-74
2021/08/02 20:15:10;;;;;;;4.03;2.75;;;;;;;;;;8192463;28;20535;-73
2021/08/02 20:19:15;;;;;;;3.63;2.67;;;;;;;;;;8193636;28;20475;-73
2021/08/02 20:23:38;;;;;;;5.78;2.83;;;;;;;;;;8192510;28;20469;-74
2021/08/02 20:27:45;;;;;;;3.47;2.33;;;;;;;;;;8193221;28;20042;-74
2021/08/02 20:31:52;;;;;;;7.22;3.03;;;;;;;;;;8197221;28;20462;-74
2021/08/02 20:36:01;;;;;;;6.13;3.25;;;;;;;;;;8183823;28;20468;-74
2021/08/02 20:40:09;;;;;;;13.43;4.13;;;;;;;;;;8198295;28;20466;-74
2021/08/02 20:44:17;;;;;;;11.20;4.53;;;;;;;;;;8198394;28;20785;-73
2021/08/02 20:48:24;;;;;;;6.85;3.92;;;;;;;;;;8181643;28;20380;-75
2021/08/02 20:52:41;;;;;;;13.00;4.03;;;;;;;;;;8198141;28;20469;-74
2021/08/02 20:56:47;;;;;;;7.95;3.53;;;;;;;;;;8196422;28;20073;-74
2021/08/02 21:01:03;;;;;;;12.68;3.47;;;;;;;;;;8180994;28;20365;-74
2021/08/02 21:05:18;;;;;;;6.25;2.95;;;;;;;;;;8199397;28;20099;-74
2021/08/02 21:09:32;;;;;;;9.60;3.40;;;;;;;;;;8196794;28;20077;-73
2021/08/02 21:14:14;;;;;;;10.27;4.22;;;;;;;;;;8197320;28;20472;-74
2021/08/02 21:18:44;;;;;;;7.78;4.50;;;;;;;;;;8197049;28;20499;-73
2021/08/02 21:22:56;;;;;;;5.53;3.35;;;;;;;;;;8196689;28;20353;-74
2021/08/02 21:27:01;;;;;;;6.25;2.80;;;;;;;;;;8194684;28;20529;-74
2021/08/02 21:31:09;;;;;;;4.88;2.38;;;;;;;;;;8196568;28;20345;-74
2021/08/02 21:35:13;;;;;;;5.82;2.58;;;;;;;;;;8194177;28;20385;-73
2021/08/02 21:39:18;;;;;;;6.30;3.35;;;;;;;;;;8193867;28;20483;-74
2021/08/02 21:43:23;;;;;;;4.28;2.58;;;;;;;;;;8195485;28;20460;-74
2021/08/02 21:47:28;;;;;;;5.05;2.97;;;;;;;;;;8194797;28;20372;-74
2021/08/02 21:51:33;;;;;;;5.05;2.90;;;;;;;;;;8195589;28;20347;-74
2021/08/02 21:55:39;;;;;;;3.22;2.65;;;;;;;;;;8193867;28;20466;-76
2021/08/02 21:59:44;;;;;;;4.05;2.40;;;;;;;;;;8178326;28;20457;-74
2021/08/02 22:03:49;;;;;;;2.97;2.38;;;;;;;;;;8195346;28;20473;-74
2021/08/02 22:07:54;;;;;;;3.25;2.17;;;;;;;;;;8195947;28;20485;-74
2021/08/02 22:11:59;;;;;;;6.22;2.47;;;;;;;;;;8194185;28;20064;-74
2021/08/02 22:16:04;;;;;;;5.60;2.40;;;;;;;;;;8194003;28;20468;-74
2021/08/02 22:20:10;;;;;;;6.65;2.45;;;;;;;;;;8194452;28;20428;-74
2021/08/02 22:24:27;;;;;;;6.10;2.50;;;;;;;;;;8194558;28;20046;-73
2021/08/02 22:28:32;;;;;;;6.50;2.35;;;;;;;;;;8194714;28;20064;-73
2021/08/02 22:32:37;;;;;;;3.30;2.33;;;;;;;;;;8195337;28;20049;-74
2021/08/02 22:36:43;;;;;;;3.55;2.67;;;;;;;;;;8195390;28;20465;-74
2021/08/02 22:40:48;;;;;;;4.80;2.42;;;;;;;;;;8193517;28;20042;-74
2021/08/02 22:44:53;;;;;;;6.57;2.47;;;;;;;;;;8194215;28;20497;-74
2021/08/02 22:48:58;;;;;;;5.55;2.97;;;;;;;;;;8193132;28;20049;-73
2021/08/02 22:53:04;;;;;;;4.00;2.60;;;;;;;;;;8192773;28;20504;-74
2021/08/02 22:57:09;;;;;;;4.55;2.47;;;;;;;;;;8192334;28;20489;-74
2021/08/02 23:01:16;;;;;;;5.95;2.45;;;;;;;;;;8194089;28;20477;-74
2021/08/02 23:05:30;;;;;;;3.40;2.33;;;;;;;;;;8193697;28;20344;-74
2021/08/02 23:09:34;;;;;;;5.25;2.55;;;;;;;;;;8195590;28;20492;-74
2021/08/02 23:13:40;;;;;;;4.78;3.05;;;;;;;;;;8193299;28;20061;-73
2021/08/02 23:17:47;;;;;;;2.58;1.98;;;;;;;;;;8193727;28;20484;-74
2021/08/02 23:21:52;;;;;;;7.63;2.75;;;;;;;;;;8195238;28;20042;-74
2021/08/02 23:25:59;;;;;;;4.97;2.30;;;;;;;;;;8195691;28;20369;-75
2021/08/02 23:30:05;;;;;;;2.85;2.03;;;;;;;;;;8192821;28;20357;-74
2021/08/02 23:34:11;;;;;;;5.00;2.03;;;;;;;;;;8191737;28;20391;-74
2021/08/02 23:38:17;;;;;;;4.60;2.83;;;;;;;;;;8191630;28;20350;-74
2021/08/02 23:42:22;;;;;;;5.22;2.40;;;;;;;;;;8192287;28;20449;-74
2021/08/02 23:46:26;;;;;;;4.20;2.22;;;;;;;;;;8192701;28;20374;-74
2021/08/02 23:50:32;;;;;;;4.78;2.97;;;;;;;;;;8191303;28;20399;-74
2021/08/02 23:54:38;;;;;;;3.70;2.45;;;;;;;;;;8191603;28;20111;-74
2021/08/02 23:58:44;;;;;;;5.25;2.55;;;;;;;;;;8191179;28;20462;-75
